createdAt,value
2023-01-04T00:00:28.357Z,75.70
2023-01-04T00:09:11.178Z,75.56
2023-01-04T00:17:34.120Z,75.76
2023-01-04T00:25:56.973Z,75.61
2023-01-04T00:34:20.054Z,75.76
2023-01-04T00:42:42.810Z,75.62
2023-01-04T00:51:05.836Z,75.62
2023-01-04T00:59:32.005Z,75.68
2023-01-04T01:07:54.775Z,75.63
2023-01-04T01:16:37.951Z,75.65
2023-01-04T01:25:04.103Z,75.42
2023-01-04T01:33:27.577Z,75.45
2023-01-04T01:41:50.420Z,75.67
2023-01-04T01:50:28.005Z,75.74
2023-01-04T01:58:54.249Z,75.52
2023-01-04T02:07:22.114Z,75.68
2023-01-04T02:16:15.153Z,75.68
2023-01-04T02:25:15.834Z,75.49
2023-01-04T02:33:49.902Z,75.72
2023-01-04T02:42:51.036Z,75.68
2023-01-04T02:51:32.388Z,75.54
2023-01-04T03:00:01.712Z,75.65
2023-01-04T03:08:35.991Z,75.66
2023-01-04T03:17:00.403Z,75.83
2023-01-04T03:25:51.592Z,75.83
2023-01-04T03:34:33.756Z,75.61
2023-01-04T03:43:22.228Z,75.53
2023-01-04T03:51:47.253Z,75.53
2023-01-04T04:00:13.988Z,75.44
2023-01-04T04:08:36.752Z,75.49
2023-01-04T04:16:59.590Z,75.49
2023-01-04T04:25:22.934Z,75.31
2023-01-04T04:33:45.885Z,75.48
2023-01-04T04:42:09.182Z,75.41
2023-01-04T04:50:32.003Z,75.35
2023-01-04T04:58:54.775Z,75.24
2023-01-04T05:07:17.534Z,75.20
2023-01-04T05:15:43.305Z,75.32
2023-01-04T05:24:07.383Z,75.42
2023-01-04T05:32:30.157Z,75.41
2023-01-04T05:40:53.400Z,75.23
2023-01-04T05:49:16.414Z,75.25
2023-01-04T05:57:39.568Z,75.39
2023-01-04T06:06:02.563Z,75.47
2023-01-04T06:14:25.930Z,75.46
2023-01-04T06:22:48.765Z,75.26
2023-01-04T06:31:13.086Z,75.20
2023-01-04T06:39:37.652Z,75.15
2023-01-04T06:48:04.443Z,75.34
2023-01-04T06:56:32.220Z,75.39
2023-01-04T07:04:55.116Z,75.36
2023-01-04T07:13:18.066Z,75.49
2023-01-04T07:21:41.630Z,75.38
2023-01-04T07:30:05.226Z,75.30
2023-01-04T07:38:28.106Z,75.34
2023-01-04T07:46:51.160Z,75.51
2023-01-04T07:55:14.085Z,75.59
2023-01-04T08:03:36.877Z,75.86
2023-01-04T08:11:59.716Z,75.76
2023-01-04T08:20:22.744Z,76.02
2023-01-04T08:28:46.092Z,76.30
2023-01-04T08:37:09.463Z,76.45
2023-01-04T08:45:32.580Z,76.50
2023-01-04T08:53:55.483Z,76.75
2023-01-04T09:02:24.963Z,76.59
2023-01-04T09:10:48.157Z,76.74
2023-01-04T09:19:13.947Z,76.72
2023-01-04T09:27:39.928Z,76.79
2023-01-04T09:36:05.091Z,76.82
2023-01-04T09:45:22.079Z,76.80
2023-01-04T09:53:29.027Z,76.92
2023-01-04T10:01:56.452Z,76.95
2023-01-04T10:10:49.296Z,77.05
2023-01-04T10:28:39.557Z,77.18
2023-01-04T10:37:14.952Z,77.35
2023-01-04T10:45:51.501Z,77.23
2023-01-04T10:54:49.523Z,77.48
2023-01-04T11:03:27.461Z,77.43
2023-01-04T11:11:57.372Z,77.80
2023-01-04T11:20:25.084Z,77.85
2023-01-04T11:29:00.862Z,77.90
2023-01-04T11:37:29.033Z,77.92
2023-01-04T11:46:07.610Z,78.01
2023-01-04T11:54:36.381Z,77.89
2023-01-04T12:03:18.694Z,78.00
2023-01-04T12:11:43.963Z,78.01
2023-01-04T12:20:20.407Z,77.96
2023-01-04T12:28:46.468Z,78.11
2023-01-04T12:37:11.301Z,77.93
2023-01-04T12:45:40.489Z,77.92
2023-01-04T12:54:06.128Z,77.97
2023-01-04T13:03:21.006Z,77.81
2023-01-04T13:12:20.226Z,77.81
2023-01-04T13:21:19.341Z,77.98
2023-01-04T13:30:50.052Z,77.69
2023-01-04T13:39:44.248Z,77.66
2023-01-04T13:48:17.644Z,77.62
2023-01-04T13:56:40.593Z,77.85
2023-01-04T14:05:03.661Z,77.77
2023-01-04T14:13:27.078Z,77.78
2023-01-04T14:21:52.823Z,77.60
2023-01-04T14:30:18.576Z,77.51
2023-01-04T14:39:04.332Z,77.72
2023-01-04T14:47:27.226Z,77.78
2023-01-04T14:55:50.671Z,77.73
2023-01-04T15:04:13.656Z,77.66
2023-01-04T15:12:37.741Z,77.67
2023-01-04T15:21:04.282Z,77.52
2023-01-04T15:29:27.070Z,77.67
2023-01-04T15:37:49.903Z,77.68
2023-01-04T15:46:12.708Z,77.44
2023-01-04T15:54:35.615Z,77.64
2023-01-04T16:03:00.935Z,77.44
2023-01-04T16:11:24.866Z,77.28
2023-01-04T16:19:47.870Z,77.36
2023-01-04T16:28:10.681Z,77.35
2023-01-04T16:36:33.546Z,77.55
2023-01-04T16:44:56.326Z,77.43
2023-01-04T16:53:19.783Z,77.18
2023-01-04T17:01:49.876Z,77.44
2023-01-04T17:10:16.061Z,77.35
2023-01-04T17:18:39.272Z,77.45
2023-01-04T17:27:02.128Z,77.50
2023-01-04T17:35:25.011Z,77.56
2023-01-04T17:43:49.955Z,77.76
2023-01-04T17:52:18.181Z,77.73
2023-01-04T18:00:44.082Z,77.63
2023-01-04T18:09:07.914Z,77.72
2023-01-04T18:17:30.846Z,77.62
2023-01-04T18:25:53.663Z,77.74
2023-01-04T18:34:17.516Z,77.89
2023-01-04T18:42:47.363Z,77.91
2023-01-04T18:51:12.719Z,77.87
2023-01-04T18:59:35.595Z,77.87
2023-01-04T19:07:58.606Z,77.98
2023-01-04T19:16:21.958Z,78.00
2023-01-04T19:24:44.843Z,77.92
2023-01-04T19:33:09.895Z,78.07
2023-01-04T19:41:34.698Z,78.19
2023-01-04T19:50:00.604Z,78.35
2023-01-04T19:58:23.467Z,78.65
2023-01-04T20:06:46.368Z,78.38
2023-01-04T20:15:10.619Z,78.47
2023-01-04T20:23:34.284Z,78.39
2023-01-04T20:31:57.157Z,78.55
2023-01-04T20:40:20.430Z,78.50
2023-01-04T20:48:43.936Z,78.78
2023-01-04T20:57:06.753Z,78.96
2023-01-04T21:05:29.542Z,78.65
2023-01-04T21:13:52.975Z,78.80
2023-01-04T21:22:15.864Z,78.87
2023-01-04T21:30:40.681Z,79.02
2023-01-04T21:39:03.657Z,79.18
2023-01-04T21:47:26.527Z,78.96
2023-01-04T21:55:57.889Z,79.14
2023-01-04T22:04:20.848Z,79.06
2023-01-04T22:12:45.064Z,79.30
2023-01-04T22:21:11.810Z,79.29
2023-01-04T22:29:34.629Z,79.28
2023-01-04T22:37:57.385Z,79.40
2023-01-04T22:46:20.293Z,79.36
2023-01-04T22:54:43.117Z,79.31
2023-01-04T23:03:06.177Z,79.43
2023-01-04T23:11:31.437Z,79.60
2023-01-04T23:19:54.341Z,79.68
2023-01-04T23:28:17.184Z,79.61
2023-01-04T23:36:42.321Z,79.73
2023-01-04T23:45:05.905Z,79.72
2023-01-04T23:53:28.696Z,79.70
